ユジノサハリンスク の空港の天気 - METARとTAF

ホムトヴォ空港(ユジノサハリンスク) ( UHSS / UUS ) - ロシア ユジノサハリンスク
飛行場実況気象(Metar)
観測時間01/19 21:00 VLAT (01/19 11:00 UTC)
風向・風速北北西 6m/s
視程10km以上
天気現象
少しの雲 雲底高度 1220m
気温-12℃
湿度66%
気圧1013hPa
METARUHSS 191100Z 33006MPS 9999 FEW040 M12/M17 Q1013 R01/810360 NOSIG RMK QFE758/1011
過去の天気等 Google飛行場航空写真 Wunderground天気予報

過去48時間のMETAR

飛行場予報(TAF)
発表時間: 1/19 18:00 VLAT (1/19 08:00 UTC)
予報対象時間: 19日19時 VLAT ~ 21日1時 VLAT
風向・風速北北西 3m/s
視程10km以上
全天の8割程度の積乱雲 雲底高度 910m
TAF UHSS 190800Z 1909/2015 34003MPS 9999 BKN030CB